createdAt,value
2019-04-22T00:02:11.890Z,9.80
2019-04-22T00:04:30.196Z,10.27
2019-04-22T00:06:51.722Z,10.57
2019-04-22T00:09:02.259Z,11.20
2019-04-22T00:11:21.239Z,11.57
2019-04-22T00:13:26.539Z,11.20
2019-04-22T00:15:29.463Z,11.17
2019-04-22T00:20:00.446Z,10.50
2019-04-22T00:22:08.040Z,17.17
2019-04-22T00:24:12.221Z,11.33
2019-04-22T00:26:23.963Z,11.10
2019-04-22T00:28:41.542Z,11.20
2019-04-22T00:30:40.627Z,12.20
2019-04-22T00:33:03.452Z,10.83
2019-04-22T00:35:15.202Z,12.23
2019-04-22T00:37:25.038Z,11.60
2019-04-22T00:41:42.837Z,11.97
2019-04-22T00:43:56.769Z,11.73
2019-04-22T00:46:01.125Z,12.70
2019-04-22T00:48:16.022Z,15.87
2019-04-22T00:50:26.764Z,21.37
2019-04-22T00:52:34.681Z,12.33
2019-04-22T00:54:51.260Z,11.10
2019-04-22T00:56:50.843Z,11.83
2019-04-22T00:58:59.101Z,12.40
2019-04-22T01:01:14.374Z,12.20
2019-04-22T01:03:27.453Z,11.80
2019-04-22T01:05:34.404Z,13.63
2019-04-22T01:07:44.565Z,29.60
2019-04-22T01:09:58.630Z,12.30
2019-04-22T01:11:59.119Z,12.33
2019-04-22T01:14:09.229Z,11.07
2019-04-22T01:16:24.989Z,11.70
2019-04-22T01:18:27.938Z,12.10
2019-04-22T01:21:02.195Z,11.77
2019-04-22T01:22:46.242Z,11.50
2019-04-22T01:24:57.855Z,12.13
2019-04-22T01:27:03.208Z,12.40
2019-04-22T01:29:12.667Z,12.40
2019-04-22T01:31:12.362Z,12.00
2019-04-22T01:33:28.115Z,12.13
2019-04-22T01:35:41.198Z,12.43
2019-04-22T01:37:54.177Z,12.60
2019-04-22T01:40:14.774Z,11.70
2019-04-22T01:42:18.802Z,11.50
2019-04-22T01:44:33.395Z,10.97
2019-04-22T01:46:47.630Z,10.93
2019-04-22T01:48:47.287Z,11.67
2019-04-22T01:50:54.778Z,11.27
2019-04-22T01:53:27.364Z,10.90
2019-04-22T01:57:22.937Z,9.43
2019-04-22T01:59:28.638Z,9.50
2019-04-22T02:01:53.492Z,9.17
2019-04-22T02:03:57.443Z,10.10
2019-04-22T02:06:06.934Z,9.30
2019-04-22T02:08:27.673Z,9.83
2019-04-22T02:10:30.136Z,9.80
2019-04-22T02:12:35.469Z,9.27
2019-04-22T02:16:55.870Z,9.80
2019-04-22T02:19:08.963Z,8.90
2019-04-22T02:21:09.338Z,8.57
2019-04-22T02:23:45.174Z,8.80
2019-04-22T02:25:40.986Z,8.70
2019-04-22T02:27:46.008Z,8.80
2019-04-22T02:29:54.075Z,8.73
2019-04-22T02:32:19.628Z,7.70
2019-04-22T02:36:30.074Z,8.90
2019-04-22T02:38:51.326Z,8.73
2019-04-22T02:41:10.196Z,8.13
2019-04-22T02:43:02.711Z,8.90
2019-04-22T02:45:26.650Z,8.10
2019-04-22T02:49:37.861Z,6.87
2019-04-22T02:56:05.516Z,6.67
2019-04-22T02:58:05.646Z,6.67
2019-04-22T03:00:21.592Z,6.20
2019-04-22T03:02:28.484Z,6.67
2019-04-22T03:04:37.480Z,7.50
2019-04-22T03:11:16.833Z,6.80
2019-04-22T03:13:21.387Z,8.47
2019-04-22T03:15:11.637Z,7.37
2019-04-22T03:17:36.764Z,7.53
2019-04-22T03:21:46.929Z,7.17
2019-04-22T03:24:18.026Z,6.33
2019-04-22T03:26:27.372Z,6.83
2019-04-22T03:28:18.812Z,6.77
2019-04-22T03:30:47.559Z,6.60
2019-04-22T03:33:05.472Z,6.80
2019-04-22T03:35:20.024Z,7.70
2019-04-22T03:39:28.249Z,6.87
2019-04-22T03:41:27.233Z,7.07
2019-04-22T03:43:33.787Z,6.70
2019-04-22T03:45:30.220Z,5.93
2019-04-22T03:47:53.736Z,6.60
2019-04-22T03:50:17.628Z,7.10
2019-04-22T03:54:29.841Z,7.27
2019-04-22T03:57:04.947Z,6.87
2019-04-22T03:58:28.850Z,7.20
2019-04-22T04:00:55.882Z,6.77
2019-04-22T04:02:59.565Z,7.00
2019-04-22T04:05:29.644Z,6.93
2019-04-22T04:11:39.017Z,6.23
2019-04-22T04:13:41.979Z,6.63
2019-04-22T04:15:38.370Z,6.60
2019-04-22T04:20:10.901Z,7.77
2019-04-22T04:22:35.886Z,7.47
2019-04-22T04:24:48.037Z,7.00
2019-04-22T04:31:19.553Z,6.57
2019-04-22T04:33:11.233Z,6.87
2019-04-22T04:35:23.893Z,7.17
2019-04-22T04:37:42.413Z,6.67
2019-04-22T04:39:40.518Z,6.80
2019-04-22T04:41:52.084Z,7.60
2019-04-22T04:44:11.163Z,7.37
2019-04-22T04:46:06.110Z,7.73
2019-04-22T04:48:14.453Z,7.87
2019-04-22T04:55:03.941Z,15.87
2019-04-22T04:56:46.628Z,9.40
2019-04-22T04:59:08.151Z,46.30
2019-04-22T05:03:21.217Z,17.27
2019-04-22T05:09:47.371Z,45.47
2019-04-22T05:12:01.858Z,45.37
2019-04-22T05:14:05.415Z,53.10
2019-04-22T05:16:25.100Z,7.13
2019-04-22T05:18:20.763Z,61.07
2019-04-22T05:22:43.096Z,49.13
2019-04-22T05:24:51.860Z,47.37
2019-04-22T05:27:10.869Z,53.20
2019-04-22T05:29:09.648Z,55.50
2019-04-22T05:31:27.615Z,50.13
2019-04-22T05:33:32.174Z,56.43
2019-04-22T05:35:33.296Z,8.07
2019-04-22T05:37:54.689Z,47.47
2019-04-22T05:40:04.466Z,8.30
2019-04-22T05:44:14.686Z,51.60
2019-04-22T05:46:22.525Z,49.20
2019-04-22T05:48:34.183Z,53.43
2019-04-22T05:50:37.345Z,8.43
2019-04-22T05:52:56.003Z,8.00
2019-04-22T05:55:08.281Z,8.03
2019-04-22T05:57:17.953Z,8.10
2019-04-22T05:59:24.433Z,7.00
2019-04-22T06:01:45.110Z,9.03
2019-04-22T06:03:50.899Z,9.23
2019-04-22T06:06:00.802Z,8.10
2019-04-22T06:08:08.265Z,7.20
2019-04-22T06:10:21.325Z,7.63
2019-04-22T06:12:23.387Z,7.57
2019-04-22T06:14:31.101Z,8.20
2019-04-22T06:16:50.250Z,43.80
2019-04-22T06:19:02.818Z,32.73
2019-04-22T06:21:11.548Z,47.90
2019-04-22T06:23:30.699Z,50.50
2019-04-22T06:25:57.830Z,48.60
2019-04-22T06:27:41.633Z,55.57
2019-04-22T06:29:51.321Z,48.17
2019-04-22T06:32:17.864Z,53.30
2019-04-22T06:34:11.901Z,30.27
2019-04-22T06:36:38.288Z,30.23
2019-04-22T06:38:35.902Z,33.83
2019-04-22T06:40:39.142Z,45.77
2019-04-22T06:42:53.390Z,46.87
2019-04-22T06:44:57.930Z,42.20
2019-04-22T06:47:10.535Z,39.83
2019-04-22T06:49:18.859Z,37.33
2019-04-22T06:51:30.982Z,48.60
2019-04-22T06:53:34.643Z,49.40
2019-04-22T06:55:45.826Z,45.73
2019-04-22T06:57:51.101Z,49.67
2019-04-22T07:00:05.285Z,50.43
2019-04-22T07:02:18.055Z,51.83
2019-04-22T07:04:22.257Z,52.73
2019-04-22T07:06:40.110Z,18.83
2019-04-22T07:10:50.453Z,77.07
2019-04-22T07:13:01.231Z,43.57
2019-04-22T07:15:24.387Z,45.03
2019-04-22T07:17:22.147Z,63.47
2019-04-22T07:19:33.629Z,39.17
2019-04-22T07:21:57.581Z,40.60
2019-04-22T07:24:03.040Z,58.37
2019-04-22T07:25:58.462Z,7.13
2019-04-22T07:28:11.183Z,8.30
2019-04-22T07:30:22.031Z,8.20
2019-04-22T07:32:54.919Z,7.30
2019-04-22T07:34:40.751Z,7.70
2019-04-22T07:36:59.002Z,8.70
2019-04-22T07:38:57.240Z,7.87
2019-04-22T07:41:05.848Z,8.17
2019-04-22T07:45:29.572Z,51.70
2019-04-22T07:47:38.074Z,42.63
2019-04-22T07:51:58.796Z,74.03
2019-04-22T07:54:06.501Z,35.13
2019-04-22T07:56:18.421Z,63.47
2019-04-22T07:58:26.106Z,52.37
2019-04-22T08:00:38.683Z,48.63
2019-04-22T08:07:10.726Z,60.33
2019-04-22T08:09:20.313Z,61.07
2019-04-22T08:11:37.650Z,57.03
2019-04-22T08:15:48.533Z,144.40
2019-04-22T08:20:05.549Z,49.03
2019-04-22T08:22:11.861Z,93.30
2019-04-22T08:24:23.886Z,85.20
2019-04-22T08:26:36.636Z,55.33
2019-04-22T08:28:50.143Z,126.83
2019-04-22T08:30:55.079Z,52.17
2019-04-22T08:33:04.077Z,57.47
2019-04-22T08:35:18.720Z,118.00
2019-04-22T08:39:31.158Z,138.30
2019-04-22T08:41:37.547Z,43.03
2019-04-22T08:43:57.335Z,45.83
2019-04-22T08:46:06.182Z,113.23
2019-04-22T08:48:21.074Z,47.33
2019-04-22T08:50:25.512Z,57.97
2019-04-22T08:52:38.636Z,71.57
2019-04-22T08:54:44.930Z,78.20
2019-04-22T08:56:50.690Z,44.73
2019-04-22T09:01:11.229Z,70.40
2019-04-22T09:03:16.002Z,58.17
2019-04-22T09:05:52.176Z,51.07
2019-04-22T09:07:48.568Z,30.47
2019-04-22T09:09:54.081Z,46.83
2019-04-22T09:12:04.357Z,16.53
2019-04-22T09:14:11.626Z,32.03
2019-04-22T09:16:21.906Z,32.83
2019-04-22T09:18:32.936Z,22.90
2019-04-22T09:20:41.820Z,19.67
2019-04-22T09:22:48.430Z,26.93
2019-04-22T09:24:51.774Z,18.57
2019-04-22T09:27:11.263Z,23.60
2019-04-22T09:29:20.939Z,30.40
2019-04-22T09:31:24.016Z,18.40
2019-04-22T09:33:36.895Z,27.33
2019-04-22T09:42:10.751Z,10.97
2019-04-22T09:44:21.841Z,61.17
2019-04-22T09:46:39.602Z,19.43
2019-04-22T09:48:43.893Z,24.87
2019-04-22T09:50:57.327Z,63.73
2019-04-22T09:53:02.119Z,63.40
2019-04-22T09:55:12.516Z,60.93
2019-04-22T09:57:21.686Z,59.43
2019-04-22T09:59:35.295Z,60.47
2019-04-22T10:01:50.417Z,58.00
2019-04-22T10:03:56.292Z,65.10
2019-04-22T10:06:13.271Z,60.50
2019-04-22T10:08:18.557Z,53.87
2019-04-22T10:16:50.762Z,52.23
2019-04-22T10:21:19.131Z,56.67
2019-04-22T10:23:20.227Z,54.40
2019-04-22T10:25:32.720Z,53.83
2019-04-22T10:27:39.803Z,61.50
2019-04-22T10:29:53.693Z,57.57
2019-04-22T10:31:55.807Z,50.93
2019-04-22T10:33:58.475Z,7.60
2019-04-22T10:35:51.862Z,8.27
2019-04-22T10:38:00.676Z,7.97
2019-04-22T10:40:15.819Z,9.03
2019-04-22T10:42:25.221Z,8.83
2019-04-22T10:44:35.258Z,8.47
2019-04-22T10:46:44.354Z,9.80
2019-04-22T10:48:52.756Z,8.20
2019-04-22T10:51:01.032Z,8.57
2019-04-22T10:53:09.123Z,8.50
2019-04-22T10:55:17.376Z,8.10
2019-04-22T10:57:25.639Z,7.47
2019-04-22T10:59:34.389Z,7.28
2019-04-22T11:01:42.423Z,7.60
2019-04-22T11:03:51.124Z,7.73
2019-04-22T11:05:59.406Z,8.20
2019-04-22T11:08:08.500Z,8.63
2019-04-22T11:10:34.666Z,7.35
2019-04-22T11:12:30.810Z,9.00
2019-04-22T11:14:40.159Z,8.07
2019-04-22T11:16:47.694Z,8.60
2019-04-22T11:18:55.882Z,8.67
2019-04-22T11:21:05.283Z,7.83
2019-04-22T11:23:14.386Z,7.60
2019-04-22T11:25:23.610Z,7.83
2019-04-22T11:27:32.926Z,7.62
2019-04-22T11:29:41.541Z,6.85
2019-04-22T11:31:50.442Z,7.83
2019-04-22T11:33:58.623Z,6.90
2019-04-22T11:36:07.957Z,7.70
2019-04-22T11:38:17.288Z,9.15
2019-04-22T11:40:34.831Z,8.83
2019-04-22T11:42:36.317Z,7.62
2019-04-22T11:44:45.407Z,10.80
2019-04-22T11:46:53.694Z,25.90
2019-04-22T11:49:01.724Z,34.60
2019-04-22T11:51:09.775Z,52.83
2019-04-22T11:53:18.657Z,44.73
2019-04-22T11:55:26.933Z,42.73
2019-04-22T11:57:35.031Z,42.45
2019-04-22T11:59:43.072Z,34.00
2019-04-22T12:01:52.812Z,34.20
2019-04-22T12:04:02.170Z,29.67
2019-04-22T12:06:10.390Z,37.83
2019-04-22T12:08:18.743Z,24.15
2019-04-22T12:10:34.684Z,31.52
2019-04-22T12:12:36.999Z,9.43
2019-04-22T12:14:45.879Z,6.95
2019-04-22T12:16:55.195Z,34.45
2019-04-22T12:19:03.209Z,22.62
2019-04-22T12:21:11.028Z,39.10
2019-04-22T12:23:18.989Z,33.70
2019-04-22T12:25:34.842Z,21.85
2019-04-22T12:27:38.888Z,34.15
2019-04-22T12:29:47.182Z,8.00
2019-04-22T12:31:55.614Z,11.08
2019-04-22T12:34:05.986Z,15.10
2019-04-22T12:36:14.951Z,7.50
2019-04-22T12:38:24.092Z,25.75
2019-04-22T12:40:40.790Z,24.12
2019-04-22T12:42:42.150Z,8.98
2019-04-22T12:44:51.182Z,7.50
2019-04-22T12:47:00.733Z,8.33
2019-04-22T12:49:09.906Z,7.08
2019-04-22T12:51:18.881Z,7.85
2019-04-22T12:53:28.040Z,18.50
2019-04-22T12:55:37.474Z,18.77
2019-04-22T12:57:46.452Z,16.05
2019-04-22T12:59:55.428Z,15.32
2019-04-22T13:02:03.246Z,23.22
2019-04-22T13:04:15.304Z,9.88
2019-04-22T13:06:21.734Z,8.13
2019-04-22T13:08:29.859Z,8.83
2019-04-22T13:10:45.627Z,8.35
2019-04-22T13:12:47.219Z,8.83
2019-04-22T13:14:55.111Z,8.05
2019-04-22T13:17:04.024Z,9.45
2019-04-22T13:19:14.958Z,8.85
2019-04-22T13:21:22.761Z,8.78
2019-04-22T13:23:31.769Z,11.05
2019-04-22T13:25:40.903Z,9.50
2019-04-22T13:27:49.169Z,9.63
2019-04-22T13:29:57.407Z,8.40
2019-04-22T13:32:06.850Z,10.38
2019-04-22T13:34:21.630Z,10.95
2019-04-22T13:36:27.650Z,11.63
2019-04-22T13:38:35.376Z,11.18
2019-04-22T13:40:57.880Z,9.73
2019-04-22T13:42:53.521Z,12.45
2019-04-22T13:45:01.973Z,33.38
2019-04-22T13:47:27.940Z,49.93
2019-04-22T13:49:49.415Z,33.58
2019-04-22T13:52:02.371Z,12.03
2019-04-22T13:54:36.855Z,12.43
2019-04-22T13:56:26.310Z,12.35
2019-04-22T13:58:14.599Z,11.68
2019-04-22T14:00:13.802Z,10.65
2019-04-22T14:02:32.731Z,14.30
2019-04-22T14:04:42.935Z,13.20
2019-04-22T14:06:52.535Z,12.90
2019-04-22T14:09:01.219Z,13.05
2019-04-22T14:11:16.805Z,14.43
2019-04-22T14:13:21.670Z,24.00
2019-04-22T14:15:31.975Z,21.45
2019-04-22T14:17:41.027Z,31.73
2019-04-22T14:19:48.903Z,15.68
2019-04-22T14:21:57.800Z,16.00
2019-04-22T14:24:07.360Z,13.00
2019-04-22T14:26:15.479Z,13.80
2019-04-22T14:28:25.136Z,12.25
2019-04-22T14:30:34.572Z,10.82
2019-04-22T14:32:43.989Z,11.88
2019-04-22T14:34:53.201Z,18.00
2019-04-22T14:37:01.494Z,14.65
2019-04-22T14:39:12.198Z,34.55
2019-04-22T14:41:35.831Z,25.37
2019-04-22T14:44:24.523Z,16.70
2019-04-22T14:46:08.067Z,14.35
2019-04-22T14:48:11.012Z,14.15
2019-04-22T14:50:17.861Z,14.75
2019-04-22T14:52:33.174Z,13.22
2019-04-22T14:54:34.577Z,17.40
2019-04-22T14:56:28.680Z,13.20
2019-04-22T14:58:37.398Z,20.25
2019-04-22T15:00:45.937Z,33.35
2019-04-22T15:02:55.463Z,36.28
2019-04-22T15:05:03.821Z,34.15
2019-04-22T15:07:12.758Z,52.93
2019-04-22T15:09:21.845Z,45.28
2019-04-22T15:11:41.809Z,49.15
2019-04-22T15:13:39.196Z,22.05
2019-04-22T15:16:03.015Z,11.75
2019-04-22T15:18:33.468Z,13.58
2019-04-22T15:20:54.301Z,19.27
2019-04-22T15:23:02.462Z,34.65
2019-04-22T15:25:10.619Z,38.48
2019-04-22T15:27:31.123Z,17.30
2019-04-22T15:29:39.251Z,19.82
2019-04-22T15:31:47.481Z,13.85
2019-04-22T15:33:56.424Z,13.55
2019-04-22T15:36:05.719Z,11.63
2019-04-22T15:38:15.416Z,12.25
2019-04-22T15:40:24.734Z,13.53
2019-04-22T15:42:37.732Z,14.68
2019-04-22T15:44:44.189Z,28.75
2019-04-22T15:46:53.193Z,16.75
2019-04-22T15:49:02.150Z,15.78
2019-04-22T15:51:10.949Z,25.15
2019-04-22T15:53:20.047Z,13.78
2019-04-22T15:55:29.119Z,15.80
2019-04-22T15:57:39.450Z,15.13
2019-04-22T16:00:02.308Z,16.70
2019-04-22T16:02:00.124Z,14.55
2019-04-22T16:04:06.430Z,16.97
2019-04-22T16:06:15.665Z,17.35
2019-04-22T16:08:24.698Z,14.30
2019-04-22T16:10:33.796Z,14.58
2019-04-22T16:12:53.046Z,16.45
2019-04-22T16:14:56.495Z,16.55
2019-04-22T16:17:01.264Z,14.23
2019-04-22T16:19:09.657Z,13.95
2019-04-22T16:21:30.180Z,14.53
2019-04-22T16:23:56.545Z,14.20
2019-04-22T16:26:42.510Z,14.40
2019-04-22T16:28:53.737Z,14.85
2019-04-22T16:31:01.450Z,15.37
2019-04-22T16:33:10.406Z,16.70
2019-04-22T16:35:18.785Z,16.97
2019-04-22T16:37:26.790Z,16.30
2019-04-22T16:39:36.451Z,19.07
2019-04-22T16:41:46.575Z,49.17
2019-04-22T16:43:56.231Z,20.17
2019-04-22T16:46:05.637Z,20.60
2019-04-22T16:48:13.769Z,15.80
2019-04-22T16:50:23.031Z,15.67
2019-04-22T16:52:32.190Z,24.13
2019-04-22T16:54:48.510Z,41.73
2019-04-22T16:56:57.559Z,19.63
2019-04-22T16:59:06.667Z,16.07
2019-04-22T17:01:36.722Z,17.43
2019-04-22T17:04:04.866Z,16.70
2019-04-22T17:06:32.259Z,17.87
2019-04-22T17:08:40.443Z,16.03
2019-04-22T17:10:49.479Z,17.90
2019-04-22T17:13:03.501Z,19.30
2019-04-22T17:15:12.331Z,18.10
2019-04-22T17:17:20.239Z,16.53
2019-04-22T17:19:29.194Z,20.20
2019-04-22T17:21:37.575Z,18.13
2019-04-22T17:23:45.787Z,17.73
2019-04-22T17:25:54.432Z,18.03
2019-04-22T17:28:03.560Z,17.33
2019-04-22T17:30:12.470Z,16.23
2019-04-22T17:32:23.049Z,17.07
2019-04-22T17:34:31.814Z,25.27
2019-04-22T17:36:40.531Z,19.83
2019-04-22T17:38:59.956Z,18.07
2019-04-22T17:41:11.651Z,16.60
2019-04-22T17:43:36.152Z,17.10
2019-04-22T17:45:55.865Z,18.77
2019-04-22T17:48:38.246Z,18.87
2019-04-22T17:50:44.435Z,20.67
2019-04-22T17:53:03.592Z,18.37
2019-04-22T17:55:02.707Z,21.93
2019-04-22T17:57:09.979Z,22.57
2019-04-22T17:59:23.346Z,18.33
2019-04-22T18:01:32.617Z,19.47
2019-04-22T18:03:32.500Z,16.97
2019-04-22T18:05:43.793Z,17.43
2019-04-22T18:08:09.698Z,16.07
2019-04-22T18:10:27.543Z,14.93
2019-04-22T18:12:36.206Z,31.63
2019-04-22T18:14:44.857Z,33.90
2019-04-22T18:16:43.006Z,18.30
2019-04-22T18:18:52.891Z,17.20
2019-04-22T18:20:57.454Z,14.33
2019-04-22T18:23:03.631Z,15.10
2019-04-22T18:25:14.886Z,15.27
2019-04-22T18:27:47.270Z,23.43
2019-04-22T18:29:43.418Z,21.40
2019-04-22T18:31:44.159Z,21.17
2019-04-22T18:33:59.449Z,17.33
2019-04-22T18:36:09.973Z,19.30
2019-04-22T18:38:32.999Z,18.30
2019-04-22T18:40:30.819Z,15.30
2019-04-22T18:42:45.776Z,15.30
2019-04-22T18:44:55.556Z,16.80
2019-04-22T18:47:01.200Z,20.27
2019-04-22T18:49:11.048Z,17.53
2019-04-22T18:51:35.232Z,42.67
2019-04-22T18:54:00.160Z,33.20
2019-04-22T18:56:19.160Z,26.37
2019-04-22T18:58:21.463Z,22.83
2019-04-22T19:00:21.298Z,29.67
2019-04-22T19:02:33.162Z,19.20
2019-04-22T19:04:53.068Z,18.00
2019-04-22T19:07:07.458Z,19.40
2019-04-22T19:09:27.341Z,16.37
2019-04-22T19:11:30.154Z,16.93
2019-04-22T19:13:56.037Z,48.60
2019-04-22T19:16:25.591Z,39.10
2019-04-22T19:20:47.857Z,47.63
2019-04-22T19:22:55.256Z,41.93
2019-04-22T19:24:54.745Z,32.97
2019-04-22T19:27:20.113Z,21.50
2019-04-22T19:29:18.639Z,20.27
2019-04-22T19:31:40.754Z,26.20
2019-04-22T19:33:34.556Z,27.63
2019-04-22T19:35:40.218Z,24.40
2019-04-22T19:37:51.944Z,16.27
2019-04-22T19:42:25.121Z,31.20
2019-04-22T19:44:26.266Z,20.10
2019-04-22T19:46:35.433Z,20.00
2019-04-22T19:48:45.715Z,17.00
2019-04-22T19:51:06.966Z,17.10
2019-04-22T19:53:03.529Z,16.47
2019-04-22T19:55:14.090Z,17.77
2019-04-22T19:57:24.930Z,16.77
2019-04-22T19:59:32.744Z,12.77
2019-04-22T20:02:00.684Z,11.97
2019-04-22T20:04:41.303Z,14.00
2019-04-22T20:06:47.872Z,39.33
2019-04-22T20:08:59.312Z,28.97
2019-04-22T20:11:12.880Z,29.47
2019-04-22T20:13:25.212Z,24.47
2019-04-22T20:15:22.636Z,25.83
2019-04-22T20:17:56.489Z,32.23
2019-04-22T20:19:50.149Z,34.77
2019-04-22T20:21:59.656Z,54.83
2019-04-22T20:23:55.926Z,40.47
2019-04-22T20:26:07.563Z,40.13
2019-04-22T20:28:29.094Z,31.73
2019-04-22T20:30:39.933Z,39.10
2019-04-22T20:32:44.617Z,36.57
2019-04-22T20:34:57.529Z,37.83
2019-04-22T20:37:10.467Z,39.43
2019-04-22T20:39:10.884Z,34.13
2019-04-22T20:41:22.807Z,35.87
2019-04-22T20:43:43.140Z,25.53
2019-04-22T20:45:46.645Z,26.50
2019-04-22T20:47:45.440Z,34.00
2019-04-22T20:50:05.509Z,29.13
2019-04-22T20:52:19.246Z,33.30
2019-04-22T20:54:22.917Z,30.80
2019-04-22T20:56:29.978Z,30.17
2019-04-22T20:58:47.965Z,39.23
2019-04-22T21:00:46.425Z,43.30
2019-04-22T21:02:51.308Z,38.73
2019-04-22T21:04:59.076Z,35.13
2019-04-22T21:07:16.853Z,36.57
2019-04-22T21:09:27.298Z,33.87
2019-04-22T21:11:38.564Z,39.10
2019-04-22T21:13:51.326Z,31.97
2019-04-22T21:16:04.524Z,33.80
2019-04-22T21:18:05.565Z,34.47
2019-04-22T21:20:28.977Z,36.67
2019-04-22T21:22:33.911Z,31.27
2019-04-22T21:24:34.745Z,29.97
2019-04-22T21:26:44.061Z,28.77
2019-04-22T21:28:56.741Z,37.30
2019-04-22T21:31:17.161Z,32.37
2019-04-22T21:33:16.291Z,36.50
2019-04-22T21:35:47.517Z,32.80
2019-04-22T21:37:43.060Z,41.87
2019-04-22T21:39:42.099Z,33.00
2019-04-22T21:41:56.987Z,37.33
2019-04-22T21:44:12.812Z,28.47
2019-04-22T21:46:20.770Z,19.63
2019-04-22T21:48:37.172Z,22.47
2019-04-22T21:52:54.775Z,21.43
2019-04-22T21:55:08.692Z,13.50
2019-04-22T21:57:24.173Z,28.17
2019-04-22T21:59:30.693Z,35.27
2019-04-22T22:04:04.765Z,29.53
2019-04-22T22:06:02.967Z,20.87
2019-04-22T22:08:27.324Z,24.80
2019-04-22T22:10:34.487Z,34.30
2019-04-22T22:12:40.790Z,22.67
2019-04-22T22:14:51.332Z,25.80
2019-04-22T22:16:53.399Z,35.53
2019-04-22T22:19:11.719Z,39.30
2019-04-22T22:21:34.917Z,40.40
2019-04-22T22:23:34.526Z,36.50
2019-04-22T22:25:33.706Z,43.43
2019-04-22T22:27:44.374Z,42.03
2019-04-22T22:30:29.390Z,34.17
2019-04-22T22:32:13.278Z,29.50
2019-04-22T22:34:19.091Z,38.53
2019-04-22T22:36:20.727Z,43.13
2019-04-22T22:38:31.194Z,35.70
2019-04-22T22:40:27.653Z,34.30
2019-04-22T22:42:38.680Z,42.23
2019-04-22T22:44:46.759Z,33.87
2019-04-22T22:47:08.598Z,36.97
2019-04-22T22:49:23.397Z,37.17
2019-04-22T22:51:39.605Z,35.30
2019-04-22T22:53:46.402Z,41.97
2019-04-22T22:55:46.381Z,42.00
2019-04-22T22:58:01.331Z,43.20
2019-04-22T23:00:09.709Z,37.73
2019-04-22T23:02:15.682Z,37.00
2019-04-22T23:06:38.280Z,39.60
2019-04-22T23:08:51.870Z,34.93
2019-04-22T23:11:00.945Z,34.60
2019-04-22T23:13:06.882Z,32.23
2019-04-22T23:15:12.034Z,30.53
2019-04-22T23:17:10.013Z,38.90
2019-04-22T23:19:13.586Z,36.33
2019-04-22T23:21:29.305Z,38.33
2019-04-22T23:23:53.010Z,39.10
2019-04-22T23:26:02.568Z,40.13
2019-04-22T23:28:26.595Z,38.53
2019-04-22T23:30:44.590Z,36.50
2019-04-22T23:33:05.810Z,35.00
2019-04-22T23:35:22.669Z,42.53
2019-04-22T23:37:39.398Z,39.07
2019-04-22T23:39:56.548Z,37.13
2019-04-22T23:42:20.885Z,34.47
2019-04-22T23:44:14.326Z,36.13
2019-04-22T23:46:19.004Z,30.23
2019-04-22T23:48:24.579Z,43.57
2019-04-22T23:50:37.566Z,19.60
2019-04-22T23:52:53.318Z,35.77
2019-04-22T23:55:06.571Z,33.47
2019-04-22T23:57:08.817Z,33.40
2019-04-22T23:59:37.942Z,34.43
